Flight Track Log - Related Links

Times and Time Zones

All times are in EDT time to prevent confusion due to time zone crossing. See the N789XJ flight status page for this flight to view local times or setup timezone preferences in your user account.

Time Position Orientation Groundspeed Altitude Reporting Facility
EDT Latitude Longitude Course Direction KTS MPH feet Rate Location/Type
Mon 09:41:38 AM 42.4667 -71.3167 236° Southwest 185 213 1,300  Level KA90
Mon 09:42:14 AM 42.4500 -71.3500 236° Southwest 232 267 2,300 2,628 Climbing KA90
Mon 09:43:55 AM 42.3756 -71.4844 233° Southwest 272 313 7,300 2,981 Climbing Boston Center
Mon 09:44:55 AM 42.3617 -71.5858 260° West 262 302 10,300 2,700 Climbing Boston Center
Mon 09:45:55 AM 42.3417 -71.6844 255° West 295 339 12,700 2,600 Climbing Boston Center
Mon 09:46:55 AM 42.3069 -71.8142 250° West 330 380 15,500 2,550 Climbing Boston Center
Mon 09:47:55 AM 42.2742 -71.9378 250° West 353 406 17,800 2,350 Climbing Boston Center
Mon 09:48:55 AM 42.2392 -72.0644 250° West 353 406 20,200 2,350 Climbing Boston Center
Mon 09:49:55 AM 42.2042 -72.1906 249° West 358 412 22,500 2,150 Climbing Boston Center
Mon 09:50:55 AM 42.1669 -72.3169 248° West 358 412 24,500 1,800 Climbing Boston Center
Mon 09:51:55 AM 42.1294 -72.4486 249° West 368 423 26,100 1,550 Climbing Boston Center
Mon 09:52:55 AM 42.0897 -72.5883 249° West 386 444 27,600 1,350 Climbing Boston Center
Mon 09:53:55 AM 42.0603 -72.7003 251° West 396 456 28,800 1,500 Climbing Boston Center
Mon 09:54:55 AM 42.0139 -72.8733 250° West 410 472 30,600 1,600 Climbing Boston Center
Mon 09:55:55 AM 41.9592 -73.0292 245° Southwest 432 497 32,000 700 Climbing Boston Center
Mon 09:56:55 AM 41.8936 -73.1736 239° Southwest 444 511 32,000  Level Boston Center
Mon 09:57:55 AM 41.8114 -73.3147 232° Southwest 472 543 32,000  Level Boston Center
Mon 10:00:05 AM 41.6256 -73.5908 228° Southwest 507 583 32,000  Level New York Center
Mon 10:01:06 AM 41.5350 -73.7172 226° Southwest 496 571 32,000  Level New York Center
Mon 10:02:04 AM 41.4400 -73.8514 227° Southwest 496 571 32,000  Level New York Center
Mon 10:03:05 AM 41.3469 -73.9825 227° Southwest 496 571 32,000  Level New York Center
Mon 10:04:06 AM 41.2539 -74.1131 227° Southwest 489 563 32,000  Level New York Center
Mon 10:05:03 AM 41.1475 -74.2567 225° Southwest 489 563 32,000 -1,356 Level New York Center
Mon 10:07:03 AM 40.9653 -74.4972 225° Southwest 474 545 28,000 -1,326 Descending New York Center
Mon 10:08:04 AM 40.8739 -74.6158 224° Southwest 468 539 28,000  Level New York Center
Mon 10:09:04 AM 40.8047 -74.7544 237° Southwest 463 533 28,000  Level New York Center
Mon 10:10:05 AM 40.7394 -74.9011 240° Southwest 463 533 28,000  Level New York Center
Mon 10:11:05 AM 40.6758 -75.0478 240° Southwest 463 533 28,000  Level New York Center
Mon 10:12:06 AM 40.6147 -75.1781 238° Southwest 468 539 28,000  Level New York Center
Mon 10:13:04 AM 40.5458 -75.3431 241° Southwest 474 545 28,000 -814 Level New York Center
Mon 10:14:04 AM 40.4911 -75.4647 239° Southwest 450 518 26,400 -2,250 Descending New York Center
Mon 10:15:04 AM 40.4225 -75.6183 240° Southwest 444 511 23,500 -2,777 Descending New York Center
Mon 10:16:05 AM 40.3603 -75.7583 240° Southwest 451 519 20,800 -1,765 Descending New York Center
Mon 10:17:03 AM 40.3094 -75.8744 240° Southwest 437 503 20,000 -403 Descending New York Center
Mon 10:18:04 AM 40.2472 -76.0086 239° Southwest 430 495 20,000  Level New York Center
Mon 10:19:04 AM 40.1894 -76.1375 240° Southwest 419 482 20,000 -450 Level New York Center
Mon 10:20:04 AM 40.1225 -76.2789 238° Southwest 419 482 19,100 -1,300 Descending New York Center
Mon 10:21:04 AM 40.0711 -76.3969 240° Southwest 419 482 17,400 -2,000 Descending New York Center
Mon 10:22:04 AM 40.0058 -76.5381 239° Southwest 419 482 15,100 -774 Descending New York Center
Mon 10:24:10 AM 39.8833 -76.7833 237° Southwest 411 473 15,000 -323 Descending Potomac TRACON
Mon 10:25:10 AM 39.8333 -76.9167 244° Southwest 410 472 14,100 -1,438 Descending Potomac TRACON
Mon 10:26:11 AM 39.7667 -77.0333 233° Southwest 403 464 12,100 -1,934 Descending Potomac TRACON
Mon 10:27:11 AM 39.7167 -77.1500 241° Southwest 385 443 10,200 -1,350 Descending Potomac TRACON
Mon 10:28:11 AM 39.6500 -77.2500 229° Southwest 294 338 9,400 -600 Descending Potomac TRACON
Mon 10:29:11 AM 39.5667 -77.2833 197° South 271 312 9,000 -400 Descending Potomac TRACON
Mon 10:30:11 AM 39.5000 -77.3167 201° Southwest 274 315 8,600 -1,000 Descending Potomac TRACON
Mon 10:31:11 AM 39.4333 -77.3500 201° Southwest 273 314 7,000 -1,050 Descending Potomac TRACON
Mon 10:32:11 AM 39.3667 -77.3833 201° Southwest 269 310 6,500 -1,200 Descending Potomac TRACON
Mon 10:33:11 AM 39.3000 -77.4167 201° Southwest 270 311 4,600 -1,750 Descending Potomac TRACON
Mon 10:34:11 AM 39.2167 -77.4500 197° South 269 310 3,000 -800 Descending Potomac TRACON
Mon 10:35:11 AM 39.1500 -77.4667 191° South 251 289 3,000 -250 Level Potomac TRACON
Mon 10:36:11 AM 39.0833 -77.4667 180° South 221 254 2,500 -750 Descending Potomac TRACON
Mon 10:37:11 AM 39.0333 -77.4667 180° South 213 245 1,500 -1,000 Descending Potomac TRACON
Mon 10:38:05 AM 38.9833 -77.4667 180° South 157 181 600 -1,000 Descending Potomac TRACON
Mon 10:40:00 AM 38.9474 -77.4599 165° South  Level Estimated
Mon 10:47:00 AM 38.9474 -77.4599 165° South  Level Estimated
Mon 10:48:00 AM 38.9474 -77.4599 165° South  Level Estimated
Mon 10:49:00 AM 38.9474 -77.4599 165° South  Level Estimated

Login

Don't have an account? Register now (free) for customized features, flight alerts, and more!